Ana Sayfa
METAR-TAF:

METAR-TAF

Havaalanları :

Elizabeth City, Kuzey Carolina, Amerika Birleşik Devletleri

Enlem: 36-15-47N, Boylam: 076-10-58W, yükseklik: 3 m

Güncel hava durumu gözlemi

Rapor saat 00:54 UTC de 1 saat ve 7 dakika önce yapıldı.
Rüzgar doğu/güneydoğudan 4 kt
Sıcaklık 16°C
Nem 88%
Basınç 1017 hPa
Görüş mesafesi: 16.1 km
Açık gökyüzü

METAR: KECG 070054Z 12004KT 10SM CLR 16/14 A3003 RMK AO2 SLP170 T01610139

Saat: 22:01 (02:01 UTC)

Tahmin

Rapor saat 23:20 UTC de 2 saat ve 41 dakika önce yapıldı.
Ayın 07'si saat 00 UTC'den ayın 07'si saat 24 UTC'ye kadar geçerli Tahmin
Rüzgar değişken yönden 3 kt
Görüş mesafesi: 10 km
Açık gökyüzü
Ayın 07'si saat 1400 UTC'den
Rüzgar batı/güneybatıdan 7 kt
Görüş mesafesi: 10 km
Açık gökyüzü

TAF: KECG 062320Z 0700/0724 VRB03KT P6SM SKC FM071400 24007KT P6SM SKC

4.000'den fazla havaalanı için hava durumu gözlemleri ve tahminleri (METAR ve TAF raporları).

Kullanılabilir istasyonlar harita üzerinde sarı ve kırmızı noktalarla gösterilir.

İstasyonun adını görmek için fareyi noktanın üzerinde gezdirin.

Sonrasında hava gözlem ve tahminlerini görmek için tıklayın.

Haritayı değiştirmek için: yaklaştırmak için siyah artı işaretli yeşil düğmeye ve uzaklaştırmak için de eksi işaretli düğmeye hızla tıklayın; bitişik haritalar için yeşil okları kullanın.


METAR-TAF: